createdAt,value
2023-05-16T00:00:01.336Z,13.83
2023-05-16T00:05:02.859Z,13.83
2023-05-16T00:10:00.614Z,13.5
2023-05-16T00:15:02.234Z,13.5
2023-05-16T00:20:00.585Z,13.5
2023-05-16T00:25:01.155Z,13.5
2023-05-16T00:30:01.988Z,13.5
2023-05-16T00:35:00.673Z,13.5
2023-05-16T00:40:01.772Z,13.08
2023-05-16T00:45:02.742Z,13.08
2023-05-16T00:50:00.661Z,13.08
2023-05-16T00:55:00.696Z,13.08
2023-05-16T01:00:02.448Z,13.08
2023-05-16T01:05:00.578Z,13.08
2023-05-16T01:10:01.310Z,12.97
2023-05-16T01:15:01.259Z,12.97
2023-05-16T01:20:00.680Z,12.97
2023-05-16T01:25:00.601Z,12.97
2023-05-16T01:30:00.905Z,12.54
2023-05-16T01:35:00.625Z,12.44
2023-05-16T01:40:00.638Z,12.44
2023-05-16T01:45:01.408Z,12.44
2023-05-16T01:50:00.614Z,12.44
2023-05-16T01:55:00.670Z,11.92
2023-05-16T02:00:01.027Z,11.92
2023-05-16T02:05:00.638Z,11.92
2023-05-16T02:10:02.735Z,11.92
2023-05-16T02:15:01.757Z,11.92
2023-05-16T02:20:02.911Z,11.92
2023-05-16T02:25:02.698Z,11.96
2023-05-16T02:30:01.329Z,11.96
2023-05-16T02:35:01.361Z,11.96
2023-05-16T02:40:00.769Z,11.96
2023-05-16T02:45:00.698Z,11.61
2023-05-16T02:50:00.802Z,11.61
2023-05-16T02:55:16.868Z,11.61
2023-05-16T03:00:00.424Z,11.61
2023-05-16T03:05:00.524Z,11.61
2023-05-16T03:10:00.731Z,11.61
2023-05-16T03:15:00.496Z,11.85
2023-05-16T03:20:00.360Z,11.85
2023-05-16T03:25:00.821Z,11.78
2023-05-16T03:30:00.371Z,11.78
2023-05-16T03:35:00.651Z,11.78
2023-05-16T03:40:00.633Z,11.78
2023-05-16T03:45:00.762Z,11.47
2023-05-16T03:50:00.388Z,11.47
2023-05-16T03:55:00.532Z,11.47
2023-05-16T04:00:00.391Z,11.47
2023-05-16T04:05:00.435Z,11.47
2023-05-16T04:10:00.754Z,11.47
2023-05-16T04:15:01.279Z,11.47
2023-05-16T04:20:00.403Z,11.36
2023-05-16T04:25:01.626Z,11.36
2023-05-16T04:30:00.425Z,11.36
2023-05-16T04:35:00.485Z,11.36
2023-05-16T04:40:00.652Z,11.52
2023-05-16T04:45:00.543Z,11.52
2023-05-16T04:50:00.498Z,11.52
2023-05-16T04:55:00.697Z,11.52
2023-05-16T05:00:00.401Z,12.06
2023-05-16T05:05:00.702Z,12.57
2023-05-16T05:10:01.400Z,13.11
2023-05-16T05:15:00.418Z,13.62
2023-05-16T05:20:02.903Z,14.12
2023-05-16T05:25:00.784Z,14.4
2023-05-16T05:30:00.717Z,14.4
2023-05-16T05:35:00.518Z,14.93
2023-05-16T05:40:00.789Z,15.44
2023-05-16T05:45:00.736Z,14.93
2023-05-16T05:50:01.586Z,14.42
2023-05-16T05:55:00.585Z,14.42
2023-05-16T06:00:00.664Z,14.93
2023-05-16T06:05:00.580Z,14.93
2023-05-16T06:10:02.006Z,14.93
2023-05-16T06:15:00.433Z,15.05
2023-05-16T06:20:00.505Z,15.05
2023-05-16T06:25:00.636Z,15.49
2023-05-16T06:30:00.754Z,15.49
2023-05-16T06:35:00.552Z,15.49
2023-05-16T06:40:01.133Z,15.49
2023-05-16T06:45:00.396Z,15.49
2023-05-16T06:50:00.459Z,15.49
2023-05-16T06:55:00.691Z,16
2023-05-16T07:00:00.913Z,16
2023-05-16T07:05:00.388Z,16.51
2023-05-16T07:10:00.828Z,16.48
2023-05-16T07:15:00.765Z,16.48
2023-05-16T07:20:02.868Z,17.02
2023-05-16T07:25:00.544Z,17.02
2023-05-16T07:30:00.538Z,17.02
2023-05-16T07:35:00.513Z,17.02
2023-05-16T07:40:01.786Z,17.02
2023-05-16T07:45:00.685Z,17.52
2023-05-16T07:50:00.778Z,17.52
2023-05-16T07:55:00.472Z,17.52
2023-05-16T08:00:01.240Z,17.78
2023-05-16T08:05:00.418Z,17.78
2023-05-16T08:10:00.634Z,18.04
2023-05-16T08:15:00.887Z,18.04
2023-05-16T08:20:00.519Z,18.04
2023-05-16T08:25:00.679Z,18.04
2023-05-16T08:30:00.941Z,18.04
2023-05-16T08:35:00.439Z,18.04
2023-05-16T08:40:00.731Z,18.31
2023-05-16T08:45:00.630Z,18.31
2023-05-16T08:50:00.484Z,18.31
2023-05-16T08:55:10.394Z,18.83
2023-05-16T09:00:00.417Z,18.81
2023-05-16T09:05:00.370Z,18.81
2023-05-16T09:10:00.728Z,18.81
2023-05-16T09:15:00.395Z,18.81
2023-05-16T09:20:00.518Z,18.81
2023-05-16T09:25:00.692Z,18.81
2023-05-16T09:30:00.437Z,19.33
2023-05-16T09:35:00.391Z,19.33
2023-05-16T09:40:01.330Z,19.33
2023-05-16T09:45:01.529Z,19.33
2023-05-16T09:50:00.850Z,19.38
2023-05-16T09:55:00.601Z,19.38
2023-05-16T10:00:00.419Z,19.48
2023-05-16T10:05:00.448Z,19.48
2023-05-16T10:10:00.797Z,19.48
2023-05-16T10:15:00.408Z,18.81
2023-05-16T10:20:00.537Z,18.81
2023-05-16T10:25:01.317Z,18.81
2023-05-16T10:30:00.402Z,18.81
2023-05-16T10:35:00.522Z,18.81
2023-05-16T10:40:00.722Z,18.27
2023-05-16T10:45:06.047Z,18.27
2023-05-16T10:50:00.407Z,18.27
2023-05-16T10:55:00.542Z,18.65
2023-05-16T11:00:00.397Z,18.65
2023-05-16T11:05:00.449Z,18.79
2023-05-16T11:10:00.793Z,18.79
2023-05-16T11:15:00.469Z,18.28
2023-05-16T11:20:00.544Z,17.78
2023-05-16T11:25:00.765Z,17.78
2023-05-16T11:30:02.866Z,17.78
2023-05-16T11:35:00.500Z,17.25
2023-05-16T11:40:00.869Z,17.25
2023-05-16T11:45:00.622Z,17.05
2023-05-16T11:50:00.392Z,16.47
2023-05-16T11:55:00.845Z,16.47
2023-05-16T12:00:01.108Z,16.03
2023-05-16T12:05:00.467Z,16
2023-05-16T12:10:00.936Z,16
2023-05-16T12:15:00.424Z,16
2023-05-16T12:20:00.506Z,16
2023-05-16T12:25:00.791Z,16.08
2023-05-16T12:30:00.535Z,16.08
2023-05-16T12:35:00.418Z,16.08
2023-05-16T12:40:01.481Z,16.08
2023-05-16T12:45:00.417Z,16.08
2023-05-16T12:50:00.656Z,15.99
2023-05-16T12:55:00.593Z,15.99
2023-05-16T13:00:00.513Z,15.99
2023-05-16T13:05:00.430Z,15.76
2023-05-16T13:10:00.584Z,15.76
2023-05-16T13:15:00.411Z,15.76
2023-05-16T13:20:00.440Z,15.76
2023-05-16T13:25:00.686Z,15.24
2023-05-16T13:30:00.404Z,15.24
2023-05-16T13:35:00.446Z,15.02
2023-05-16T13:40:00.811Z,15.02
2023-05-16T13:45:00.927Z,14.55
2023-05-16T13:50:00.400Z,14.55
2023-05-16T13:55:00.794Z,14.55
2023-05-16T14:05:00.681Z,14.08
2023-05-16T14:10:00.704Z,14.08
2023-05-16T14:15:00.669Z,14.08
2023-05-16T14:20:00.388Z,14.08
2023-05-16T14:25:00.759Z,14.08
2023-05-16T14:30:01.314Z,14.08
2023-05-16T14:35:00.380Z,14.62
2023-05-16T14:40:00.666Z,14.62
2023-05-16T14:45:00.374Z,14.56
2023-05-16T14:50:03.657Z,14.56
2023-05-16T14:55:00.490Z,14.7
2023-05-16T15:00:00.516Z,14.7
2023-05-16T15:05:00.632Z,14.7
2023-05-16T15:10:00.815Z,14.63
2023-05-16T15:15:00.436Z,14.63
2023-05-16T15:20:00.643Z,14.63
2023-05-16T15:25:00.524Z,14.63
2023-05-16T15:30:00.768Z,14.63
2023-05-16T15:35:00.689Z,14.53
2023-05-16T15:40:00.680Z,14.53
2023-05-16T15:45:00.502Z,14.53
2023-05-16T15:50:00.534Z,14.53
2023-05-16T15:55:00.786Z,14.53
2023-05-16T16:00:00.566Z,14.53
2023-05-16T16:05:00.386Z,14.25
2023-05-16T16:10:00.777Z,14.25
2023-05-16T16:15:00.533Z,14.25
2023-05-16T16:20:01.712Z,14.25
2023-05-16T16:25:00.596Z,14.25
2023-05-16T16:30:00.523Z,14.11
2023-05-16T16:35:00.451Z,14.11
2023-05-16T16:40:00.666Z,14.11
2023-05-16T16:45:00.390Z,14.11
2023-05-16T16:50:00.712Z,14.11
2023-05-16T16:55:00.581Z,14.18
2023-05-16T17:00:00.569Z,14.18
2023-05-16T17:05:00.432Z,14.18
2023-05-16T17:10:00.845Z,14.12
2023-05-16T17:15:00.726Z,14.12
2023-05-16T17:20:00.484Z,13.96
2023-05-16T17:25:00.657Z,13.85
2023-05-16T17:30:00.463Z,13.85
2023-05-16T17:35:00.420Z,13.85
2023-05-16T17:40:00.766Z,13.54
2023-05-16T17:45:00.397Z,13.54
2023-05-16T17:50:00.470Z,13.54
2023-05-16T17:55:00.663Z,13.54
2023-05-16T18:00:00.395Z,13.54
2023-05-16T18:05:00.541Z,13.54
2023-05-16T18:10:04.640Z,13.04
2023-05-16T18:15:00.444Z,13.04
2023-05-16T18:20:00.781Z,12.81
2023-05-16T18:25:00.700Z,12.8
2023-05-16T18:30:00.522Z,12.8
2023-05-16T18:35:00.472Z,12.8
2023-05-16T18:40:00.821Z,12.8
2023-05-16T18:45:00.425Z,12.8
2023-05-16T18:50:00.552Z,12.8
2023-05-16T18:55:00.632Z,12.42
2023-05-16T19:00:00.579Z,12.42
2023-05-16T19:05:01.626Z,12.42
2023-05-16T19:10:02.867Z,12.42
2023-05-16T19:15:01.315Z,12.53
2023-05-16T19:20:00.633Z,12.53
2023-05-16T19:25:00.729Z,12.53
2023-05-16T19:30:00.391Z,12.53
2023-05-16T19:35:00.622Z,12.53
2023-05-16T19:40:00.753Z,12.53
2023-05-16T19:45:01.022Z,12.53
2023-05-16T19:50:00.404Z,12.51
2023-05-16T19:55:00.664Z,12.51
2023-05-16T20:00:03.050Z,12.51
2023-05-16T20:05:00.554Z,12.51
2023-05-16T20:10:00.721Z,12.51
2023-05-16T20:15:00.392Z,12.35
2023-05-16T20:20:00.624Z,12.35
2023-05-16T20:25:01.870Z,12.35
2023-05-16T20:30:00.447Z,12.35
2023-05-16T20:35:00.559Z,12.35
2023-05-16T20:40:02.539Z,12.5
2023-05-16T20:45:00.992Z,12.5
2023-05-16T20:50:00.486Z,12.5
2023-05-16T20:55:00.644Z,12.5
2023-05-16T21:00:00.475Z,12.5
2023-05-16T21:05:14.500Z,12.5
2023-05-16T21:10:00.792Z,12.09
2023-05-16T21:15:00.440Z,11.99
2023-05-16T21:20:00.566Z,11.99
2023-05-16T21:25:00.684Z,11.99
2023-05-16T21:30:00.431Z,11.99
2023-05-16T21:35:01.335Z,11.99
2023-05-16T21:40:01.225Z,11.99
2023-05-16T21:45:00.519Z,11.99
2023-05-16T21:50:00.530Z,11.82
2023-05-16T21:55:00.437Z,11.82
2023-05-16T22:00:01.331Z,11.78
2023-05-16T22:05:00.505Z,11.78
2023-05-16T22:10:00.647Z,11.78
2023-05-16T22:15:00.552Z,11.78
2023-05-16T22:20:00.521Z,11.95
2023-05-16T22:25:00.783Z,11.95
2023-05-16T22:30:00.503Z,11.95
2023-05-16T22:35:00.448Z,11.95
2023-05-16T22:40:00.933Z,11.95
2023-05-16T22:45:00.503Z,11.95
2023-05-16T22:50:01.036Z,11.95
2023-05-16T22:55:00.846Z,11.74
2023-05-16T23:00:00.547Z,11.74
2023-05-16T23:05:00.509Z,11.67
2023-05-16T23:10:00.865Z,11.67
2023-05-16T23:15:00.400Z,11.67
2023-05-16T23:20:00.668Z,11.67
2023-05-16T23:25:00.871Z,11.67
2023-05-16T23:30:00.410Z,11.67
2023-05-16T23:35:00.492Z,11.67
2023-05-16T23:40:00.975Z,11.16
2023-05-16T23:45:00.425Z,11.12
2023-05-16T23:55:00.683Z,11.06
